createdAt,value
2022-08-21T00:00:14.158Z,69.46
2022-08-21T00:01:14.085Z,69.95
2022-08-21T00:02:14.057Z,70.04
2022-08-21T00:03:13.934Z,69.85
2022-08-21T00:04:20.075Z,69.85
2022-08-21T00:05:13.786Z,70.33
2022-08-21T00:06:14.082Z,70.52
2022-08-21T00:07:13.630Z,70.23
2022-08-21T00:08:13.557Z,71.29
2022-08-21T00:09:13.476Z,70.90
2022-08-21T00:10:13.401Z,70.81
2022-08-21T00:11:13.330Z,70.23
2022-08-21T00:12:13.249Z,70.90
2022-08-21T00:13:13.169Z,71.19
2022-08-21T00:14:13.097Z,71.77
2022-08-21T00:15:13.019Z,71.87
2022-08-21T00:16:12.948Z,72.16
2022-08-21T00:17:12.876Z,72.06
2022-08-21T00:18:12.795Z,71.87
2022-08-21T00:19:12.721Z,71.96
2022-08-21T00:20:12.649Z,72.25
2022-08-21T00:21:12.564Z,72.34
2022-08-21T00:22:12.490Z,72.06
2022-08-21T00:23:12.415Z,72.54
2022-08-21T00:24:12.340Z,72.25
2022-08-21T00:25:12.268Z,72.44
2022-08-21T00:26:12.186Z,72.54
2022-08-21T00:27:12.113Z,72.73
2022-08-21T00:28:12.042Z,72.34
2022-08-21T00:29:11.957Z,72.64
2022-08-21T00:30:11.882Z,72.64
2022-08-21T00:31:11.805Z,72.25
2022-08-21T00:32:11.738Z,72.64
2022-08-21T00:33:11.653Z,72.73
2022-08-21T00:34:11.576Z,72.64
2022-08-21T00:35:11.509Z,72.83
2022-08-21T00:36:11.422Z,73.21
2022-08-21T00:37:11.353Z,73.02
2022-08-21T00:38:11.278Z,72.44
2022-08-21T00:39:11.199Z,73.02
2022-08-21T00:40:11.180Z,73.11
2022-08-21T00:41:36.851Z,73.41
2022-08-21T00:42:10.968Z,73.21
2022-08-21T00:43:10.896Z,73.31
2022-08-21T00:44:10.827Z,73.31
2022-08-21T00:45:10.744Z,74.17
2022-08-21T00:46:10.665Z,74.08
2022-08-21T00:47:10.592Z,74.37
2022-08-21T00:48:10.516Z,73.94
2022-08-21T00:49:10.441Z,74.17
2022-08-21T00:50:10.366Z,74.08
2022-08-21T00:51:10.290Z,73.69
2022-08-21T00:52:10.213Z,74.55
2022-08-21T00:53:10.140Z,73.88
2022-08-21T00:54:15.468Z,73.88
2022-08-21T00:55:09.992Z,73.85
2022-08-21T00:56:10.063Z,73.79
2022-08-21T00:57:09.831Z,74.27
2022-08-21T00:58:09.771Z,74.23
2022-08-21T00:59:09.679Z,74.04
2022-08-21T01:00:09.601Z,73.79
2022-08-21T01:01:09.568Z,73.69
2022-08-21T01:02:09.450Z,73.46
2022-08-21T01:03:09.381Z,73.46
2022-08-21T01:04:09.298Z,74.23
2022-08-21T01:05:09.230Z,73.56
2022-08-21T01:06:09.145Z,74.13
2022-08-21T01:07:09.074Z,73.46
2022-08-21T01:08:08.992Z,72.31
2022-08-21T01:09:08.919Z,72.12
2022-08-21T01:10:08.847Z,72.12
2022-08-21T01:11:08.770Z,72.12
2022-08-21T01:12:08.691Z,72.22
2022-08-21T01:13:08.612Z,71.73
2022-08-21T01:14:08.538Z,72.12
2022-08-21T01:15:08.471Z,72.79
2022-08-21T01:16:08.384Z,73.18
2022-08-21T01:17:08.306Z,72.99
2022-08-21T01:18:08.230Z,72.99
2022-08-21T01:19:08.155Z,73.46
2022-08-21T01:20:08.095Z,73.08
2022-08-21T01:21:08.011Z,73.46
2022-08-21T01:22:07.931Z,73.21
2022-08-21T01:23:07.851Z,73.08
2022-08-21T01:24:07.775Z,73.08
2022-08-21T01:25:07.704Z,73.31
2022-08-21T01:26:07.629Z,73.41
2022-08-21T01:27:07.549Z,73.37
2022-08-21T01:28:07.476Z,73.37
2022-08-21T01:29:07.395Z,73.18
2022-08-21T01:30:07.322Z,72.89
2022-08-21T01:31:07.247Z,72.99
2022-08-21T01:32:07.171Z,72.79
2022-08-21T01:33:07.097Z,73.27
2022-08-21T01:34:07.017Z,72.89
2022-08-21T01:35:06.939Z,72.60
2022-08-21T01:36:06.860Z,73.08
2022-08-21T01:37:06.791Z,72.69
2022-08-21T01:38:06.717Z,73.08
2022-08-21T01:39:06.638Z,72.79
2022-08-21T01:40:06.608Z,73.18
2022-08-21T01:41:06.486Z,72.99
2022-08-21T01:42:06.413Z,72.12
2022-08-21T01:43:06.332Z,72.31
2022-08-21T01:44:06.257Z,72.69
2022-08-21T01:45:06.177Z,72.22
2022-08-21T01:46:06.099Z,72.69
2022-08-21T01:47:06.025Z,72.02
2022-08-21T01:48:05.948Z,71.73
2022-08-21T01:49:05.876Z,71.55
2022-08-21T01:50:05.802Z,71.35
2022-08-21T01:51:05.723Z,71.45
2022-08-21T01:52:05.647Z,71.25
2022-08-21T01:53:05.569Z,71.64
2022-08-21T01:54:05.496Z,72.12
2022-08-21T01:55:05.417Z,72.41
2022-08-21T01:56:05.346Z,72.50
2022-08-21T01:57:05.262Z,72.22
2022-08-21T01:58:05.191Z,72.37
2022-08-21T01:59:05.115Z,72.18
2022-08-21T02:00:05.034Z,72.28
2022-08-21T02:01:04.967Z,71.89
2022-08-21T02:02:04.886Z,72.37
2022-08-21T02:03:04.806Z,72.08
2022-08-21T02:04:04.739Z,72.08
2022-08-21T02:05:04.656Z,72.56
2022-08-21T02:06:04.574Z,72.47
2022-08-21T02:07:04.500Z,72.37
2022-08-21T02:08:04.427Z,72.66
2022-08-21T02:09:04.346Z,72.85
2022-08-21T02:10:04.276Z,72.75
2022-08-21T02:11:04.196Z,72.66
2022-08-21T02:12:04.120Z,73.43
2022-08-21T02:13:04.045Z,73.04
2022-08-21T02:14:03.972Z,73.24
2022-08-21T02:15:03.918Z,73.14
2022-08-21T02:16:03.816Z,73.24
2022-08-21T02:17:09.046Z,74.01
2022-08-21T02:18:03.666Z,74.19
2022-08-21T02:19:03.584Z,73.81
2022-08-21T02:20:03.505Z,74.77
2022-08-21T02:21:03.431Z,74.19
2022-08-21T02:22:03.371Z,74.29
2022-08-21T02:23:03.278Z,74.39
2022-08-21T02:24:03.207Z,74.58
2022-08-21T02:25:03.130Z,74.39
2022-08-21T02:26:03.054Z,74.48
2022-08-21T02:27:02.975Z,75.63
2022-08-21T02:28:02.897Z,75.15
2022-08-21T02:29:02.825Z,74.96
2022-08-21T02:30:02.747Z,75.15
2022-08-21T02:31:02.667Z,75.15
2022-08-21T02:32:02.594Z,74.96
2022-08-21T02:33:02.516Z,74.96
2022-08-21T02:34:02.441Z,74.77
2022-08-21T02:35:02.364Z,74.29
2022-08-21T02:36:02.282Z,74.10
2022-08-21T02:37:02.212Z,74.68
2022-08-21T02:38:02.143Z,74.96
2022-08-21T02:39:02.060Z,75.73
2022-08-21T02:40:02.014Z,75.73
2022-08-21T02:41:01.905Z,75.79
2022-08-21T02:42:01.830Z,75.50
2022-08-21T02:43:01.752Z,75.40
2022-08-21T02:44:01.672Z,76.21
2022-08-21T02:45:01.598Z,76.40
2022-08-21T02:46:01.530Z,76.50
2022-08-21T02:47:01.450Z,77.08
2022-08-21T02:48:01.375Z,77.04
2022-08-21T02:49:01.292Z,76.46
2022-08-21T02:50:01.217Z,76.59
2022-08-21T02:51:01.139Z,76.50
2022-08-21T02:52:01.062Z,76.50
2022-08-21T02:53:00.987Z,76.59
2022-08-21T02:54:00.913Z,76.59
2022-08-21T02:55:00.834Z,77.04
2022-08-21T02:56:00.756Z,76.98
2022-08-21T02:57:00.682Z,77.17
2022-08-21T02:58:00.603Z,77.71
2022-08-21T02:59:00.534Z,77.61
2022-08-21T03:00:00.450Z,78.00
2022-08-21T03:01:00.373Z,77.56
2022-08-21T03:02:00.415Z,78.96
2022-08-21T03:03:00.235Z,78.61
2022-08-21T03:04:00.145Z,78.67
2022-08-21T03:05:00.065Z,78.99
2022-08-21T03:06:00.002Z,78.67
2022-08-21T03:06:59.918Z,79.19
2022-08-21T03:07:59.846Z,79.24
2022-08-21T03:08:59.761Z,79.44
2022-08-21T03:09:59.684Z,79.53
2022-08-21T03:10:59.609Z,79.82
2022-08-21T03:11:59.543Z,80.20
2022-08-21T03:12:59.581Z,79.44
2022-08-21T03:13:59.380Z,79.28
2022-08-21T03:14:59.307Z,79.47
2022-08-21T03:15:59.226Z,79.47
2022-08-21T03:16:59.150Z,79.67
2022-08-21T03:17:59.072Z,80.01
2022-08-21T03:18:58.996Z,80.11
2022-08-21T03:19:58.925Z,79.96
2022-08-21T03:20:58.845Z,79.76
2022-08-21T03:21:58.767Z,79.44
2022-08-21T03:22:58.871Z,79.53
2022-08-21T03:23:58.621Z,79.53
2022-08-21T03:24:58.536Z,79.63
2022-08-21T03:25:58.462Z,79.38
2022-08-21T03:26:58.388Z,79.28
2022-08-21T03:27:59.231Z,79.28
2022-08-21T03:28:58.229Z,79.72
2022-08-21T03:29:58.159Z,80.20
2022-08-21T03:30:58.082Z,79.86
2022-08-21T03:31:58.006Z,80.30
2022-08-21T03:32:58.058Z,80.01
2022-08-21T03:33:57.851Z,80.58
2022-08-21T03:34:57.772Z,80.30
2022-08-21T03:35:57.695Z,80.20
2022-08-21T03:36:57.616Z,80.20
2022-08-21T03:37:57.552Z,80.58
2022-08-21T03:38:57.464Z,80.20
2022-08-21T03:39:57.431Z,80.49
2022-08-21T03:40:57.313Z,80.49
2022-08-21T03:41:57.236Z,80.53
2022-08-21T03:42:57.331Z,80.05
2022-08-21T03:43:57.085Z,79.72
2022-08-21T03:44:57.004Z,79.63
2022-08-21T03:45:56.930Z,79.91
2022-08-21T03:46:56.855Z,79.76
2022-08-21T03:47:56.778Z,80.30
2022-08-21T03:48:56.709Z,80.78
2022-08-21T03:49:56.629Z,80.82
2022-08-21T03:50:56.548Z,80.82
2022-08-21T03:51:59.715Z,80.91
2022-08-21T03:52:56.399Z,81.30
2022-08-21T03:54:03.974Z,82.41
2022-08-21T03:56:00.171Z,82.51
2022-08-21T03:57:00.076Z,82.89
2022-08-21T03:59:03.922Z,83.47
2022-08-21T04:00:03.834Z,83.37
2022-08-21T04:02:08.223Z,82.79
2022-08-21T04:03:08.073Z,82.79
2022-08-21T04:05:00.855Z,82.89
2022-08-21T04:06:00.763Z,82.70
2022-08-21T04:08:05.087Z,82.60
2022-08-21T04:09:04.999Z,83.08
2022-08-21T04:11:08.879Z,82.89
2022-08-21T04:12:08.784Z,82.79
2022-08-21T04:14:13.115Z,82.89
2022-08-21T04:15:13.015Z,83.18
2022-08-21T04:17:16.856Z,84.14
2022-08-21T04:18:16.777Z,84.23
2022-08-21T04:20:21.113Z,85.28
2022-08-21T04:21:21.013Z,85.58
2022-08-21T04:23:24.939Z,85.48
2022-08-21T04:24:24.770Z,85.48
2022-08-21T04:25:24.699Z,86.63
2022-08-21T04:26:24.615Z,87.01
2022-08-21T04:27:24.539Z,87.11
2022-08-21T04:28:27.873Z,86.54
2022-08-21T04:29:24.394Z,86.82
2022-08-21T04:30:28.557Z,86.72
2022-08-21T04:31:24.238Z,86.54
2022-08-21T04:32:24.157Z,86.54
2022-08-21T04:33:24.086Z,86.82
2022-08-21T04:34:24.000Z,87.21
2022-08-21T04:35:23.929Z,87.40
2022-08-21T04:36:23.853Z,87.21
2022-08-21T04:37:23.770Z,87.11
2022-08-21T04:38:23.699Z,87.21
2022-08-21T04:39:29.508Z,86.72
2022-08-21T04:40:23.607Z,87.30
2022-08-21T04:41:28.086Z,87.01
2022-08-21T04:42:23.393Z,87.21
2022-08-21T04:43:23.317Z,86.54
2022-08-21T04:44:23.240Z,86.34
2022-08-21T04:45:23.192Z,86.34
2022-08-21T04:46:23.085Z,86.25
2022-08-21T04:47:23.007Z,86.92
2022-08-21T04:48:22.925Z,86.72
2022-08-21T04:49:22.852Z,87.40
2022-08-21T04:50:22.779Z,87.30
2022-08-21T04:51:22.702Z,87.78
2022-08-21T04:52:22.623Z,88.45
2022-08-21T04:53:22.547Z,88.35
2022-08-21T04:54:22.472Z,88.35
2022-08-21T04:55:22.404Z,88.35
2022-08-21T04:56:22.321Z,88.07
2022-08-21T04:57:22.239Z,87.59
2022-08-21T04:58:22.169Z,87.49
2022-08-21T04:59:22.089Z,87.21
2022-08-21T05:00:22.005Z,87.49
2022-08-21T05:01:21.969Z,87.49
2022-08-21T05:02:21.863Z,87.40
2022-08-21T05:03:21.780Z,86.63
2022-08-21T05:04:21.701Z,86.63
2022-08-21T05:05:21.629Z,86.25
2022-08-21T05:06:21.545Z,86.92
2022-08-21T05:07:41.589Z,86.54
2022-08-21T05:08:21.395Z,86.82
2022-08-21T05:09:21.320Z,86.82
2022-08-21T05:10:21.243Z,86.34
2022-08-21T05:11:21.169Z,86.82
2022-08-21T05:12:21.085Z,87.01
2022-08-21T05:13:21.013Z,87.40
2022-08-21T05:14:20.939Z,87.59
2022-08-21T05:15:20.855Z,87.98
2022-08-21T05:16:30.139Z,88.45
2022-08-21T05:17:20.705Z,88.55
2022-08-21T05:18:20.628Z,88.17
2022-08-21T05:19:20.550Z,87.98
2022-08-21T05:20:20.479Z,88.26
2022-08-21T05:21:20.399Z,88.35
2022-08-21T05:22:20.321Z,88.45
2022-08-21T05:23:20.246Z,88.55
2022-08-21T05:24:20.169Z,88.55
2022-08-21T05:25:22.288Z,88.84
2022-08-21T05:26:20.012Z,88.74
2022-08-21T05:27:19.942Z,88.84
2022-08-21T05:28:19.862Z,88.93
2022-08-21T05:29:19.783Z,88.93
2022-08-21T05:30:19.712Z,88.35
2022-08-21T05:31:19.630Z,88.35
2022-08-21T05:32:19.551Z,88.26
2022-08-21T05:33:19.482Z,88.35
2022-08-21T05:34:19.400Z,88.26
2022-08-21T05:35:19.323Z,87.68
2022-08-21T05:36:19.247Z,88.45
2022-08-21T05:37:19.170Z,88.93
2022-08-21T05:38:19.097Z,89.22
2022-08-21T05:39:19.012Z,88.93
2022-08-21T05:40:21.906Z,88.84
2022-08-21T05:41:18.864Z,89.32
2022-08-21T05:42:18.787Z,89.32
2022-08-21T05:43:18.708Z,89.12
2022-08-21T05:44:18.630Z,89.61
2022-08-21T05:45:18.561Z,89.22
2022-08-21T05:46:18.484Z,89.41
2022-08-21T05:47:18.402Z,89.32
2022-08-21T05:48:18.322Z,89.51
2022-08-21T05:49:18.246Z,89.32
2022-08-21T05:50:18.181Z,89.61
2022-08-21T05:51:18.093Z,89.61
2022-08-21T05:52:18.020Z,89.61
2022-08-21T05:53:17.942Z,89.79
2022-08-21T05:54:17.868Z,90.18
2022-08-21T05:55:17.791Z,90.37
2022-08-21T05:56:17.722Z,90.18
2022-08-21T05:57:17.637Z,90.37
2022-08-21T05:58:17.561Z,89.61
2022-08-21T05:59:17.477Z,89.22
2022-08-21T06:00:17.401Z,89.03
2022-08-21T06:01:17.379Z,88.59
2022-08-21T06:02:17.250Z,88.59
2022-08-21T06:03:17.173Z,87.59
2022-08-21T06:04:17.101Z,87.73
2022-08-21T06:05:17.019Z,87.88
2022-08-21T06:06:16.943Z,88.45
2022-08-21T06:07:16.874Z,88.17
2022-08-21T06:08:16.789Z,88.45
2022-08-21T06:09:16.727Z,88.26
2022-08-21T06:10:16.689Z,87.98
2022-08-21T06:11:16.559Z,87.92
2022-08-21T06:12:16.487Z,88.49
2022-08-21T06:13:16.407Z,88.79
2022-08-21T06:14:16.346Z,88.21
2022-08-21T06:15:16.253Z,88.88
2022-08-21T06:16:16.410Z,88.88
2022-08-21T06:17:16.096Z,89.07
2022-08-21T06:18:16.029Z,90.03
2022-08-21T06:19:15.944Z,90.13
2022-08-21T06:20:15.881Z,90.42
2022-08-21T06:21:15.791Z,90.80
2022-08-21T06:22:15.715Z,91.47
2022-08-21T06:23:15.643Z,91.57
2022-08-21T06:24:15.565Z,91.09
2022-08-21T06:25:15.505Z,91.47
2022-08-21T06:26:15.411Z,91.66
2022-08-21T06:27:15.335Z,91.57
2022-08-21T06:28:15.254Z,92.33
2022-08-21T06:29:15.183Z,92.24
2022-08-21T06:30:15.109Z,92.53
2022-08-21T06:31:15.029Z,93.10
2022-08-21T06:32:14.950Z,93.49
2022-08-21T06:33:14.874Z,93.39
2022-08-21T06:34:14.804Z,93.49
2022-08-21T06:35:14.717Z,93.20
2022-08-21T06:36:14.642Z,93.39
2022-08-21T06:37:14.566Z,93.30
2022-08-21T06:38:14.493Z,93.49
2022-08-21T06:39:24.850Z,93.77
2022-08-21T06:40:14.390Z,93.92
2022-08-21T06:41:14.263Z,94.11
2022-08-21T06:42:14.191Z,94.11
2022-08-21T06:43:15.121Z,94.21
2022-08-21T06:44:14.036Z,95.36
2022-08-21T06:45:13.955Z,95.94
2022-08-21T06:46:13.884Z,95.60
2022-08-21T06:47:13.808Z,96.22
2022-08-21T06:48:18.926Z,96.32
2022-08-21T06:49:21.380Z,95.84
2022-08-21T06:50:13.572Z,97.19
2022-08-21T06:51:13.507Z,97.57
2022-08-21T06:52:13.419Z,98.14
2022-08-21T06:53:13.349Z,98.82
2022-08-21T06:54:13.273Z,99.99
2022-08-21T06:55:13.189Z,99.99
2022-08-21T06:56:13.115Z,99.99
2022-08-21T06:57:13.043Z,99.99
2022-08-21T06:58:12.964Z,99.99
2022-08-21T06:59:12.971Z,99.99
2022-08-21T07:00:12.816Z,99.99
2022-08-21T07:01:12.771Z,99.99
2022-08-21T07:02:12.658Z,99.99
2022-08-21T07:03:12.585Z,99.99
2022-08-21T07:04:12.503Z,99.99
2022-08-21T07:05:18.099Z,99.99
2022-08-21T07:06:12.361Z,99.99
2022-08-21T07:07:12.278Z,99.99
2022-08-21T07:08:12.200Z,99.99
2022-08-21T07:09:12.126Z,99.99
2022-08-21T07:10:19.885Z,99.99
2022-08-21T07:11:11.968Z,99.99
2022-08-21T07:12:11.893Z,99.99
2022-08-21T07:13:11.817Z,99.99
2022-08-21T07:14:11.746Z,99.99
2022-08-21T07:15:11.664Z,99.99
2022-08-21T07:16:11.597Z,99.99
2022-08-21T07:17:11.512Z,99.99
2022-08-21T07:18:11.438Z,99.99
2022-08-21T07:19:11.376Z,99.99
2022-08-21T07:20:11.288Z,99.99
2022-08-21T07:21:11.210Z,99.99
2022-08-21T07:22:11.134Z,99.99
2022-08-21T07:23:11.055Z,99.99
2022-08-21T07:24:10.984Z,99.99
2022-08-21T07:25:10.905Z,99.99
2022-08-21T07:26:10.826Z,99.99
2022-08-21T07:27:10.753Z,99.99
2022-08-21T07:28:10.677Z,99.99
2022-08-21T07:29:10.604Z,99.99
2022-08-21T07:30:10.537Z,99.99
2022-08-21T07:31:10.451Z,99.99
2022-08-21T07:32:10.371Z,99.99
2022-08-21T07:33:10.297Z,99.99
2022-08-21T07:34:10.218Z,99.99
2022-08-21T07:35:10.143Z,99.99
2022-08-21T07:36:10.063Z,99.99
2022-08-21T07:37:10.290Z,99.99
2022-08-21T07:38:09.918Z,99.99
2022-08-21T07:39:09.838Z,99.99
2022-08-21T07:40:09.817Z,99.99
2022-08-21T07:41:09.691Z,99.99
2022-08-21T07:42:09.611Z,99.99
2022-08-21T07:43:09.535Z,99.99
2022-08-21T07:44:09.460Z,99.99
2022-08-21T07:45:09.384Z,99.99
2022-08-21T07:46:09.313Z,99.99
2022-08-21T07:47:09.229Z,99.99
2022-08-21T07:48:09.156Z,99.99
2022-08-21T07:49:09.081Z,99.99
2022-08-21T07:50:09.006Z,99.99
2022-08-21T07:51:08.935Z,99.99
2022-08-21T07:52:08.847Z,99.99
2022-08-21T07:53:08.778Z,99.99
2022-08-21T07:54:08.699Z,99.99
2022-08-21T07:55:08.626Z,99.99
2022-08-21T07:56:08.547Z,99.99
2022-08-21T07:57:08.475Z,99.99
2022-08-21T07:58:08.394Z,99.99
2022-08-21T07:59:08.317Z,99.99
2022-08-21T08:00:08.242Z,99.99
2022-08-21T08:01:08.202Z,99.99
2022-08-21T08:02:08.094Z,99.99
2022-08-21T08:03:08.018Z,99.99
2022-08-21T08:04:07.946Z,99.99
2022-08-21T08:05:07.868Z,99.99
2022-08-21T08:06:07.787Z,99.99
2022-08-21T08:07:07.716Z,99.99
2022-08-21T08:08:07.635Z,99.99
2022-08-21T08:09:07.574Z,99.99
2022-08-21T08:10:07.487Z,99.99
2022-08-21T08:11:07.408Z,99.99
2022-08-21T08:12:07.333Z,99.99
2022-08-21T08:13:10.367Z,99.99
2022-08-21T08:14:07.180Z,99.99
2022-08-21T08:15:07.105Z,99.99
2022-08-21T08:16:07.032Z,99.99
2022-08-21T08:17:06.962Z,99.99
2022-08-21T08:18:06.926Z,99.99
2022-08-21T08:19:06.847Z,99.99
2022-08-21T08:20:06.727Z,99.99
2022-08-21T08:21:06.677Z,99.99
2022-08-21T08:22:06.576Z,99.99
2022-08-21T08:23:06.506Z,99.99
2022-08-21T08:24:18.423Z,99.99
2022-08-21T08:25:09.262Z,99.99
2022-08-21T08:26:06.293Z,99.99
2022-08-21T08:27:06.222Z,99.99
2022-08-21T08:28:16.128Z,99.99
2022-08-21T08:29:06.051Z,99.99
2022-08-21T08:30:05.976Z,99.99
2022-08-21T08:31:05.933Z,99.99
2022-08-21T08:32:05.819Z,99.99
2022-08-21T08:33:05.753Z,99.99
2022-08-21T08:34:05.669Z,99.99
2022-08-21T08:35:05.597Z,99.99
2022-08-21T08:36:07.995Z,99.99
2022-08-21T08:37:05.445Z,99.99
2022-08-21T08:38:05.368Z,99.99
2022-08-21T08:39:05.297Z,99.99
2022-08-21T08:40:05.585Z,99.99
2022-08-21T08:41:05.142Z,99.99
2022-08-21T08:42:32.377Z,99.99
2022-08-21T08:43:04.989Z,99.99
2022-08-21T08:44:04.914Z,99.99
2022-08-21T08:45:04.844Z,99.99
2022-08-21T08:46:04.766Z,99.99
2022-08-21T08:47:04.694Z,99.99
2022-08-21T08:48:04.616Z,99.99
2022-08-21T08:49:04.548Z,99.99
2022-08-21T08:50:04.464Z,99.99
2022-08-21T08:51:04.390Z,99.99
2022-08-21T08:52:04.313Z,99.99
2022-08-21T08:53:05.891Z,99.99
2022-08-21T08:54:04.168Z,99.99
2022-08-21T08:55:04.086Z,99.99
2022-08-21T08:56:04.012Z,99.99
2022-08-21T08:57:03.946Z,99.99
2022-08-21T08:58:03.884Z,99.99
2022-08-21T08:59:03.796Z,99.99
2022-08-21T09:00:03.716Z,99.99
2022-08-21T09:01:03.672Z,99.99
2022-08-21T09:02:03.561Z,99.99
2022-08-21T09:03:03.493Z,99.99
2022-08-21T09:04:03.422Z,99.99
2022-08-21T09:05:03.335Z,99.99
2022-08-21T09:06:03.259Z,99.99
2022-08-21T09:07:03.187Z,99.99
2022-08-21T09:08:03.108Z,99.99
2022-08-21T09:09:03.077Z,99.99
2022-08-21T09:10:02.998Z,99.99
2022-08-21T09:11:02.889Z,99.99
2022-08-21T09:12:02.815Z,99.99
2022-08-21T09:13:02.734Z,99.99
2022-08-21T09:14:02.665Z,99.99
2022-08-21T09:15:02.587Z,99.99
2022-08-21T09:16:02.512Z,99.99
2022-08-21T09:17:02.446Z,99.99
2022-08-21T09:18:02.363Z,99.99
2022-08-21T09:19:02.284Z,99.99
2022-08-21T09:20:02.219Z,99.99
2022-08-21T09:21:02.134Z,99.99
2022-08-21T09:22:02.076Z,99.99
2022-08-21T09:23:01.994Z,99.99
2022-08-21T09:24:01.912Z,99.99
2022-08-21T09:25:01.839Z,99.99
2022-08-21T09:26:01.778Z,99.99
2022-08-21T09:27:01.693Z,99.99
2022-08-21T09:28:01.623Z,99.99
2022-08-21T09:29:01.551Z,99.99
2022-08-21T09:30:01.465Z,99.99
2022-08-21T09:31:01.388Z,99.99
2022-08-21T09:32:01.320Z,99.99
2022-08-21T09:33:01.469Z,99.99
2022-08-21T09:34:01.172Z,99.99
2022-08-21T09:35:01.102Z,99.99
2022-08-21T09:36:01.015Z,99.99
2022-08-21T09:37:00.942Z,99.99
2022-08-21T09:38:00.866Z,99.99
2022-08-21T09:39:00.793Z,99.99
2022-08-21T09:40:00.770Z,99.99
2022-08-21T09:41:00.646Z,99.99
2022-08-21T09:42:00.569Z,99.99
2022-08-21T09:43:00.745Z,99.99
2022-08-21T09:44:00.429Z,99.99
2022-08-21T09:45:00.345Z,99.99
2022-08-21T09:46:00.276Z,99.99
2022-08-21T09:47:00.196Z,99.99
2022-08-21T09:48:00.126Z,99.99
2022-08-21T09:49:00.049Z,99.99
2022-08-21T09:49:59.991Z,99.99
2022-08-21T09:50:59.908Z,99.99
2022-08-21T09:51:59.854Z,99.99
2022-08-21T09:53:00.056Z,99.99
2022-08-21T09:53:59.674Z,99.99
2022-08-21T09:54:59.604Z,99.99
2022-08-21T09:56:06.726Z,99.99
2022-08-21T09:58:03.375Z,99.99
2022-08-21T09:59:03.286Z,99.99
2022-08-21T10:01:07.223Z,99.99
2022-08-21T10:02:07.073Z,99.99
2022-08-21T10:04:10.954Z,99.99
2022-08-21T10:05:10.834Z,99.99
2022-08-21T10:07:03.629Z,99.99
2022-08-21T10:08:03.536Z,99.99
2022-08-21T10:09:03.465Z,99.99
2022-08-21T10:10:03.392Z,99.99
2022-08-21T10:11:03.317Z,99.99
2022-08-21T10:12:03.238Z,99.99
2022-08-21T10:13:03.164Z,99.99
2022-08-21T10:14:03.096Z,99.99
2022-08-21T10:15:07.860Z,99.99
2022-08-21T10:16:02.940Z,99.99
2022-08-21T10:17:02.865Z,99.99
2022-08-21T10:18:02.793Z,99.99
2022-08-21T10:19:02.721Z,99.99
2022-08-21T10:20:02.642Z,99.99
2022-08-21T10:21:02.571Z,99.99
2022-08-21T10:22:02.498Z,99.99
2022-08-21T10:23:02.534Z,99.99
2022-08-21T10:24:02.351Z,99.99
2022-08-21T10:25:02.284Z,99.99
2022-08-21T10:26:14.223Z,99.99
2022-08-21T10:27:02.129Z,99.99
2022-08-21T10:28:02.056Z,99.99
2022-08-21T10:29:01.980Z,99.99
2022-08-21T10:30:01.908Z,99.99
2022-08-21T10:31:01.830Z,99.99
2022-08-21T10:32:01.758Z,99.99
2022-08-21T10:33:01.709Z,99.99
2022-08-21T10:34:01.775Z,99.99
2022-08-21T10:35:01.552Z,99.99
2022-08-21T10:36:01.468Z,99.99
2022-08-21T10:37:04.181Z,99.99
2022-08-21T10:38:03.619Z,99.99
2022-08-21T10:40:01.215Z,99.99
2022-08-21T10:41:01.093Z,99.99
2022-08-21T10:42:01.027Z,99.99
2022-08-21T10:43:00.958Z,99.99
2022-08-21T10:44:00.880Z,99.99
2022-08-21T10:45:00.800Z,99.99
2022-08-21T10:46:00.727Z,99.99
2022-08-21T10:47:00.654Z,99.99
2022-08-21T10:48:00.583Z,99.99
2022-08-21T10:49:00.615Z,99.99
2022-08-21T10:50:00.503Z,99.99
2022-08-21T10:51:00.361Z,99.99
2022-08-21T10:52:01.145Z,99.99
2022-08-21T10:53:00.444Z,99.99
2022-08-21T10:54:00.138Z,99.99
2022-08-21T10:55:00.068Z,99.99
2022-08-21T10:56:00.002Z,99.99
2022-08-21T10:57:00.049Z,99.99
2022-08-21T10:57:59.960Z,99.99
2022-08-21T10:58:59.850Z,99.99
2022-08-21T10:59:59.705Z,99.99
2022-08-21T11:00:59.666Z,99.99
2022-08-21T11:01:59.571Z,99.99
2022-08-21T11:02:59.658Z,99.99
2022-08-21T11:03:59.412Z,99.99
2022-08-21T11:04:59.338Z,99.99
2022-08-21T11:05:59.285Z,99.99
2022-08-21T11:06:59.194Z,99.99
2022-08-21T11:07:59.645Z,99.99
2022-08-21T11:08:59.131Z,99.99
2022-08-21T11:09:59.162Z,99.99
2022-08-21T11:11:00.014Z,99.99
2022-08-21T11:11:59.471Z,99.99
2022-08-21T11:12:59.346Z,99.99
2022-08-21T11:13:58.685Z,99.99
2022-08-21T11:14:58.607Z,99.99
2022-08-21T11:15:58.534Z,99.99
2022-08-21T11:16:58.471Z,99.99
2022-08-21T11:17:58.382Z,99.99
2022-08-21T11:18:58.312Z,99.99
2022-08-21T11:19:58.236Z,99.99
2022-08-21T11:20:58.165Z,99.99
2022-08-21T11:21:58.091Z,99.99
2022-08-21T11:23:03.771Z,99.99
2022-08-21T11:23:57.947Z,99.99
2022-08-21T11:24:57.872Z,99.99
2022-08-21T11:25:57.800Z,99.99
2022-08-21T11:26:57.730Z,99.99
2022-08-21T11:27:57.656Z,99.99
2022-08-21T11:28:57.579Z,99.99
2022-08-21T11:29:57.509Z,99.99
2022-08-21T11:30:57.436Z,99.99
2022-08-21T11:31:57.361Z,99.99
2022-08-21T11:32:57.494Z,99.99
2022-08-21T11:33:57.220Z,99.99
2022-08-21T11:34:57.147Z,99.99
2022-08-21T11:35:57.082Z,99.99
2022-08-21T11:36:56.996Z,99.99
2022-08-21T11:37:56.931Z,99.99
2022-08-21T11:38:56.858Z,99.99
2022-08-21T11:39:56.798Z,99.99
2022-08-21T11:40:56.708Z,99.99
2022-08-21T11:41:56.636Z,99.99
2022-08-21T11:42:56.574Z,99.51
2022-08-21T11:43:56.490Z,99.89
2022-08-21T11:44:56.420Z,98.88
2022-08-21T11:45:56.346Z,99.99
2022-08-21T11:46:56.275Z,99.12
2022-08-21T11:47:56.205Z,99.07
2022-08-21T11:48:56.130Z,98.88
2022-08-21T11:49:56.056Z,99.99
2022-08-21T11:50:55.993Z,99.17
2022-08-21T11:51:55.913Z,98.68
2022-08-21T11:52:55.841Z,97.62
2022-08-21T11:53:55.771Z,97.91
2022-08-21T11:54:55.696Z,97.08
2022-08-21T11:55:55.624Z,99.80
2022-08-21T11:56:55.550Z,99.90
2022-08-21T11:57:55.484Z,99.99
2022-08-21T11:58:55.418Z,98.83
2022-08-21T11:59:55.334Z,99.12
2022-08-21T12:00:55.261Z,99.46
2022-08-21T12:01:55.273Z,96.84
2022-08-21T12:02:55.188Z,95.00
2022-08-21T12:03:55.052Z,96.55
2022-08-21T12:04:54.978Z,99.17
2022-08-21T12:05:54.902Z,96.98
2022-08-21T12:06:54.831Z,96.98
2022-08-21T12:07:59.208Z,96.60
2022-08-21T12:08:54.693Z,95.09
2022-08-21T12:09:54.620Z,93.63
2022-08-21T12:10:54.543Z,95.19
2022-08-21T12:11:54.474Z,95.14
2022-08-21T12:12:54.511Z,92.32
2022-08-21T12:13:54.330Z,94.95
2022-08-21T12:14:54.257Z,94.56
2022-08-21T12:15:54.189Z,95.38
2022-08-21T12:16:54.119Z,92.37
2022-08-21T12:17:54.049Z,92.76
2022-08-21T12:18:53.981Z,90.81
2022-08-21T12:19:53.905Z,86.58
2022-08-21T12:20:53.842Z,88.53
2022-08-21T12:21:53.761Z,88.53
2022-08-21T12:22:53.701Z,84.25
2022-08-21T12:23:53.620Z,83.37
2022-08-21T12:24:53.553Z,83.28
2022-08-21T12:25:53.477Z,83.71
2022-08-21T12:26:53.414Z,89.45
2022-08-21T12:27:53.341Z,89.59
2022-08-21T12:28:53.274Z,87.92
2022-08-21T12:29:53.201Z,86.65
2022-08-21T12:30:57.874Z,85.07
2022-08-21T12:31:53.056Z,80.37
2022-08-21T12:32:52.998Z,78.49
2022-08-21T12:33:52.918Z,76.90
2022-08-21T12:34:52.846Z,70.71
2022-08-21T12:35:52.774Z,70.78
2022-08-21T12:36:52.710Z,69.48
2022-08-21T12:37:52.648Z,68.56
2022-08-21T12:38:52.636Z,63.42
2022-08-21T12:39:52.566Z,60.99
2022-08-21T12:40:52.442Z,62.03
2022-08-21T12:41:52.364Z,62.38
2022-08-21T12:42:58.626Z,58.80
2022-08-21T12:43:52.226Z,55.96
2022-08-21T12:44:52.156Z,57.53
2022-08-21T12:45:52.095Z,55.90
2022-08-21T12:46:52.025Z,54.64
2022-08-21T12:47:51.967Z,52.61
2022-08-21T12:48:51.894Z,50.65
2022-08-21T12:49:51.829Z,48.60
2022-08-21T12:50:51.763Z,48.14
2022-08-21T12:51:51.701Z,47.92
2022-08-21T12:52:51.663Z,45.54
2022-08-21T12:53:51.576Z,45.86
2022-08-21T12:54:51.507Z,46.28
2022-08-21T12:55:51.447Z,45.51
2022-08-21T12:56:51.385Z,45.83
2022-08-21T12:57:51.318Z,45.78
2022-08-21T12:58:51.253Z,40.40
2022-08-21T12:59:51.194Z,40.52
2022-08-21T13:00:51.131Z,40.92
2022-08-21T13:01:51.148Z,40.14
2022-08-21T13:02:51.007Z,42.47
2022-08-21T13:03:58.887Z,41.11
2022-08-21T13:04:50.895Z,40.64
2022-08-21T13:05:50.837Z,39.78
2022-08-21T13:06:50.773Z,39.58